createdAt,value
2018-06-02T00:00:00.720Z,801.83
2018-06-02T00:00:04.720Z,801.84
2018-06-02T00:00:08.830Z,801.81
2018-06-02T00:00:13.151Z,801.79
2018-06-02T00:00:17.144Z,801.84
2018-06-02T00:00:21.145Z,801.84
2018-06-02T00:00:25.351Z,801.84
2018-06-02T00:00:29.450Z,801.84
2018-06-02T00:00:33.553Z,801.86
2018-06-02T00:00:37.874Z,801.87
2018-06-02T00:00:42.190Z,801.88
2018-06-02T00:00:46.519Z,801.85
2018-06-02T00:00:50.858Z,801.87
2018-06-02T00:00:55.176Z,801.86
2018-06-02T00:00:59.278Z,801.88
2018-06-02T00:01:03.375Z,801.88
2018-06-02T00:01:07.477Z,801.87
2018-06-02T00:01:11.691Z,801.82
2018-06-02T00:01:15.903Z,801.83
2018-06-02T00:01:20.114Z,801.89
2018-06-02T00:01:24.030Z,801.86
2018-06-02T00:01:28.238Z,801.86
2018-06-02T00:01:32.342Z,801.88
2018-06-02T00:01:36.549Z,801.85
2018-06-02T00:01:40.873Z,801.87
2018-06-02T00:01:45.086Z,801.89
2018-06-02T00:01:49.303Z,801.86
2018-06-02T00:01:53.414Z,801.84
2018-06-02T00:01:57.647Z,801.9
2018-06-02T00:02:01.857Z,801.87
2018-06-02T00:02:05.858Z,801.89
2018-06-02T00:02:10.082Z,801.88
2018-06-02T00:02:14.302Z,801.91
2018-06-02T00:02:18.512Z,801.89
2018-06-02T00:02:22.501Z,801.91
2018-06-02T00:02:26.831Z,801.89
2018-06-02T00:02:31.040Z,801.87
2018-06-02T00:02:35.142Z,801.89
2018-06-02T00:02:39.359Z,801.88
2018-06-02T00:02:43.690Z,801.9
2018-06-02T00:02:47.800Z,801.88
2018-06-02T00:02:52.121Z,801.91
2018-06-02T00:02:56.351Z,801.91
2018-06-02T00:03:00.569Z,801.92
2018-06-02T00:03:04.914Z,801.95
2018-06-02T00:03:09.122Z,801.94
2018-06-02T00:03:13.123Z,801.92
2018-06-02T00:03:17.340Z,801.87
2018-06-02T00:03:21.549Z,801.92
2018-06-02T00:03:25.769Z,801.93
2018-06-02T00:03:30.091Z,801.91
2018-06-02T00:03:34.196Z,801.93
2018-06-02T00:03:38.298Z,801.93
2018-06-02T00:03:42.511Z,801.92
2018-06-02T00:03:46.610Z,801.93
2018-06-02T00:03:50.824Z,801.94
2018-06-02T00:03:55.040Z,801.9
2018-06-02T00:03:59.356Z,801.91
2018-06-02T00:04:03.589Z,801.9
2018-06-02T00:04:07.929Z,801.92
2018-06-02T00:04:12.140Z,801.93
2018-06-02T00:04:16.469Z,801.92
2018-06-02T00:04:20.688Z,801.95
2018-06-02T00:04:24.793Z,801.93
2018-06-02T00:04:28.920Z,801.9
2018-06-02T00:04:33.244Z,801.91
2018-06-02T00:04:37.566Z,801.95
2018-06-02T00:04:41.880Z,801.95
2018-06-02T00:04:46.216Z,801.94
2018-06-02T00:04:50.433Z,801.94
2018-06-02T00:04:54.756Z,801.89
2018-06-02T00:04:58.751Z,801.91
2018-06-02T00:05:02.968Z,801.95
2018-06-02T00:05:07.288Z,801.95
2018-06-02T00:05:11.501Z,801.93
2018-06-02T00:05:15.820Z,801.93
2018-06-02T00:05:19.918Z,801.95
2018-06-02T00:05:24.023Z,801.95
2018-06-02T00:05:28.229Z,801.94
2018-06-02T00:05:32.331Z,801.94
2018-06-02T00:05:36.443Z,801.95
2018-06-02T00:05:40.766Z,801.96
2018-06-02T00:05:44.975Z,801.92
2018-06-02T00:05:49.235Z,801.94
2018-06-02T00:05:53.554Z,801.95
2018-06-02T00:05:57.877Z,801.95
2018-06-02T00:06:02.094Z,801.96
2018-06-02T00:06:06.197Z,801.91
2018-06-02T00:06:10.515Z,801.97
2018-06-02T00:06:14.732Z,801.94
2018-06-02T00:06:19.046Z,801.92
2018-06-02T00:06:23.273Z,801.97
2018-06-02T00:06:27.592Z,801.96
2018-06-02T00:06:31.806Z,801.97
2018-06-02T00:06:36.123Z,801.95
2018-06-02T00:06:40.442Z,801.96
2018-06-02T00:06:44.655Z,801.95
2018-06-02T00:06:48.869Z,801.97
2018-06-02T00:06:53.187Z,801.92
2018-06-02T00:06:57.406Z,801.96
2018-06-02T00:07:01.397Z,801.94
2018-06-02T00:07:05.658Z,801.91
2018-06-02T00:07:09.879Z,801.91
2018-06-02T00:07:14.204Z,801.95
2018-06-02T00:07:18.545Z,801.96
2018-06-02T00:07:22.773Z,801.96
2018-06-02T00:07:27.088Z,801.93
2018-06-02T00:07:31.301Z,801.94
2018-06-02T00:07:35.409Z,801.96
2018-06-02T00:07:39.621Z,801.91
2018-06-02T00:07:43.831Z,801.87
2018-06-02T00:07:48.157Z,801.95
2018-06-02T00:07:52.261Z,801.93
2018-06-02T00:07:56.483Z,801.96
2018-06-02T00:08:00.580Z,801.92
2018-06-02T00:08:04.685Z,801.94
2018-06-02T00:08:08.897Z,801.95
2018-06-02T00:08:13.111Z,801.96
2018-06-02T00:08:17.321Z,801.91
2018-06-02T00:08:21.639Z,801.95
2018-06-02T00:08:25.851Z,801.96
2018-06-02T00:08:30.056Z,801.96
2018-06-02T00:08:34.291Z,801.94
2018-06-02T00:08:38.501Z,801.95
2018-06-02T00:08:42.708Z,801.97
2018-06-02T00:08:46.808Z,801.98
2018-06-02T00:08:50.911Z,801.95
2018-06-02T00:08:54.916Z,801.98
2018-06-02T00:08:59.139Z,801.95
2018-06-02T00:09:03.240Z,801.94
2018-06-02T00:09:07.348Z,801.94
2018-06-02T00:09:11.558Z,801.96
2018-06-02T00:09:15.924Z,801.93
2018-06-02T00:09:20.243Z,801.96
2018-06-02T00:09:24.449Z,801.97
2018-06-02T00:09:28.574Z,801.94
2018-06-02T00:09:32.680Z,801.9
2018-06-02T00:09:36.799Z,801.96
2018-06-02T00:09:41.143Z,801.95
2018-06-02T00:09:45.471Z,801.92
2018-06-02T00:09:49.682Z,801.94
2018-06-02T00:09:53.893Z,801.92
2018-06-02T00:09:58.215Z,801.93
2018-06-02T00:10:02.437Z,801.89
2018-06-02T00:10:06.432Z,801.92
2018-06-02T00:10:10.747Z,801.87
2018-06-02T00:10:14.956Z,801.92
2018-06-02T00:10:19.224Z,801.93
2018-06-02T00:10:23.540Z,801.91
2018-06-02T00:10:27.860Z,801.91
2018-06-02T00:10:32.070Z,801.92
2018-06-02T00:10:36.277Z,801.9
2018-06-02T00:10:40.600Z,801.92
2018-06-02T00:10:44.815Z,801.9
2018-06-02T00:10:49.035Z,801.9
2018-06-02T00:10:53.139Z,801.89
2018-06-02T00:10:57.348Z,801.86
2018-06-02T00:11:01.561Z,801.91
2018-06-02T00:11:06.213Z,801.87
2018-06-02T00:11:10.748Z,801.89
2018-06-02T00:11:15.178Z,801.92
2018-06-02T00:11:19.667Z,801.89
2018-06-02T00:11:24.325Z,801.87
2018-06-02T00:11:28.400Z,801.89
2018-06-02T00:11:32.621Z,801.9
2018-06-02T00:11:36.724Z,801.88
2018-06-02T00:11:40.858Z,801.92
2018-06-02T00:11:45.183Z,801.87
2018-06-02T00:11:49.392Z,801.89
2018-06-02T00:11:53.717Z,801.9
2018-06-02T00:11:57.722Z,801.85
2018-06-02T00:12:01.931Z,801.89
2018-06-02T00:12:05.926Z,801.88
2018-06-02T00:12:10.027Z,801.86
2018-06-02T00:12:14.234Z,801.88
2018-06-02T00:12:18.445Z,801.88
2018-06-02T00:12:22.658Z,801.88
2018-06-02T00:12:26.975Z,801.86
2018-06-02T00:12:31.291Z,801.87
2018-06-02T00:12:35.605Z,801.82
2018-06-02T00:12:39.819Z,801.82
2018-06-02T00:12:44.153Z,801.87
2018-06-02T00:12:48.480Z,801.87
2018-06-02T00:12:52.799Z,801.83
2018-06-02T00:12:57.013Z,801.86
2018-06-02T00:13:01.345Z,801.85
2018-06-02T00:13:05.446Z,801.83
2018-06-02T00:13:09.770Z,801.79
2018-06-02T00:13:13.871Z,801.82
2018-06-02T00:13:18.083Z,801.84
2018-06-02T00:13:22.395Z,801.82
2018-06-02T00:13:26.714Z,801.84
2018-06-02T00:13:30.924Z,801.8
2018-06-02T00:13:35.242Z,801.78
2018-06-02T00:13:39.454Z,801.8
2018-06-02T00:13:43.663Z,801.79
2018-06-02T00:13:47.771Z,801.82
2018-06-02T00:13:51.880Z,801.83
2018-06-02T00:13:55.999Z,801.8
2018-06-02T00:14:00.212Z,801.78
2018-06-02T00:14:04.206Z,801.82
2018-06-02T00:14:08.197Z,801.8
2018-06-02T00:14:12.513Z,801.76
2018-06-02T00:14:16.835Z,801.74
2018-06-02T00:14:21.163Z,801.77
2018-06-02T00:14:25.375Z,801.8
2018-06-02T00:14:29.385Z,801.74
2018-06-02T00:14:33.592Z,801.8
2018-06-02T00:14:37.584Z,801.8
2018-06-02T00:14:41.578Z,801.8
2018-06-02T00:14:45.915Z,801.81
2018-06-02T00:14:50.135Z,801.78
2018-06-02T00:14:54.451Z,801.78
2018-06-02T00:14:58.664Z,801.79
2018-06-02T00:15:02.766Z,801.78
2018-06-02T00:15:06.767Z,801.79
2018-06-02T00:15:11.082Z,801.78
2018-06-02T00:15:15.082Z,801.8
2018-06-02T00:15:19.293Z,801.78
2018-06-02T00:15:23.507Z,801.79
2018-06-02T00:15:27.825Z,801.78
2018-06-02T00:15:31.944Z,801.74
2018-06-02T00:15:36.162Z,801.76
2018-06-02T00:15:40.484Z,801.78
2018-06-02T00:15:44.701Z,801.76
2018-06-02T00:15:48.923Z,801.78
2018-06-02T00:15:53.030Z,801.74
2018-06-02T00:15:57.347Z,801.72
2018-06-02T00:16:01.564Z,801.74
2018-06-02T00:16:05.560Z,801.75
2018-06-02T00:16:09.768Z,801.74
2018-06-02T00:16:13.989Z,801.72
2018-06-02T00:16:18.092Z,801.74
2018-06-02T00:16:22.314Z,801.77
2018-06-02T00:16:26.643Z,801.75
2018-06-02T00:16:30.855Z,801.74
2018-06-02T00:16:34.995Z,801.71
2018-06-02T00:16:39.319Z,801.73
2018-06-02T00:16:43.532Z,801.76
2018-06-02T00:16:47.743Z,801.74
2018-06-02T00:16:52.068Z,801.72
2018-06-02T00:16:56.287Z,801.7
2018-06-02T00:17:00.604Z,801.73
2018-06-02T00:17:04.919Z,801.72
2018-06-02T00:17:09.244Z,801.64
2018-06-02T00:17:13.565Z,801.72
2018-06-02T00:17:17.786Z,801.74
2018-06-02T00:17:22.103Z,801.71
2018-06-02T00:17:26.311Z,801.67
2018-06-02T00:17:30.527Z,801.67
2018-06-02T00:17:34.627Z,801.71
2018-06-02T00:17:38.945Z,801.68
2018-06-02T00:17:43.214Z,801.7
2018-06-02T00:17:47.537Z,801.69
2018-06-02T00:17:51.855Z,801.68
2018-06-02T00:17:56.077Z,801.64
2018-06-02T00:18:00.288Z,801.68
2018-06-02T00:18:04.600Z,801.7
2018-06-02T00:18:08.813Z,801.64
2018-06-02T00:18:12.922Z,801.7
2018-06-02T00:18:17.241Z,801.69
2018-06-02T00:18:21.451Z,801.71
2018-06-02T00:18:25.772Z,801.65
2018-06-02T00:18:29.988Z,801.69
2018-06-02T00:18:34.208Z,801.67
2018-06-02T00:18:38.548Z,801.67
2018-06-02T00:18:42.651Z,801.68
2018-06-02T00:18:46.984Z,801.63
2018-06-02T00:18:51.210Z,801.66
2018-06-02T00:18:55.532Z,801.68
2018-06-02T00:18:59.744Z,801.67
2018-06-02T00:19:03.983Z,801.64
2018-06-02T00:19:08.086Z,801.66
2018-06-02T00:19:12.297Z,801.65
2018-06-02T00:19:16.512Z,801.66
2018-06-02T00:19:20.832Z,801.62
2018-06-02T00:19:25.050Z,801.63
2018-06-02T00:19:29.153Z,801.63
2018-06-02T00:19:33.259Z,801.63
2018-06-02T00:19:37.361Z,801.57
2018-06-02T00:19:41.248Z,801.64
2018-06-02T00:19:45.578Z,801.63
2018-06-02T00:19:49.899Z,801.62
2018-06-02T00:19:54.116Z,801.62
2018-06-02T00:19:58.452Z,801.63
2018-06-02T00:20:02.562Z,801.6
2018-06-02T00:20:06.897Z,801.63
2018-06-02T00:20:11.121Z,801.61
2018-06-02T00:20:15.442Z,801.62
2018-06-02T00:20:19.434Z,801.58
2018-06-02T00:20:23.757Z,801.6
2018-06-02T00:20:27.970Z,801.59
2018-06-02T00:20:32.289Z,801.56
2018-06-02T00:20:36.630Z,801.59
2018-06-02T00:20:40.951Z,801.57
2018-06-02T00:20:45.156Z,801.59
2018-06-02T00:20:49.373Z,801.58
2018-06-02T00:20:53.699Z,801.55
2018-06-02T00:20:57.914Z,801.51
2018-06-02T00:21:02.012Z,801.57
2018-06-02T00:21:06.119Z,801.6
2018-06-02T00:21:10.228Z,801.54
2018-06-02T00:21:14.441Z,801.58
2018-06-02T00:21:18.664Z,801.58
2018-06-02T00:21:22.984Z,801.57
2018-06-02T00:21:27.196Z,801.55
2018-06-02T00:21:31.299Z,801.57
2018-06-02T00:21:35.516Z,801.56
2018-06-02T00:21:39.733Z,801.53
2018-06-02T00:21:43.943Z,801.56
2018-06-02T00:21:48.160Z,801.56
2018-06-02T00:21:52.484Z,801.55
2018-06-02T00:21:56.802Z,801.55
2018-06-02T00:22:01.012Z,801.54
2018-06-02T00:22:05.221Z,801.5
2018-06-02T00:22:09.329Z,801.53
2018-06-02T00:22:13.542Z,801.49
2018-06-02T00:22:17.755Z,801.45
2018-06-02T00:22:22.080Z,801.51
2018-06-02T00:22:26.178Z,801.53
2018-06-02T00:22:30.286Z,801.53
2018-06-02T00:22:34.505Z,801.5
2018-06-02T00:22:38.824Z,801.5
2018-06-02T00:22:43.037Z,801.49
2018-06-02T00:22:47.247Z,801.5
2018-06-02T00:22:51.565Z,801.49
2018-06-02T00:22:55.785Z,801.48
2018-06-02T00:22:59.897Z,801.5
2018-06-02T00:23:04.119Z,801.46
2018-06-02T00:23:08.446Z,801.48
2018-06-02T00:23:12.770Z,801.43
2018-06-02T00:23:16.657Z,801.46
2018-06-02T00:23:20.866Z,801.47
2018-06-02T00:23:25.186Z,801.44
2018-06-02T00:23:29.400Z,801.45
2018-06-02T00:23:33.608Z,801.46
2018-06-02T00:23:37.824Z,801.47
2018-06-02T00:23:42.030Z,801.47
2018-06-02T00:23:46.346Z,801.45
2018-06-02T00:23:50.557Z,801.43
2018-06-02T00:23:54.665Z,801.4
2018-06-02T00:23:59.028Z,801.45
2018-06-02T00:24:03.283Z,801.43
2018-06-02T00:24:07.175Z,801.46
2018-06-02T00:24:11.282Z,801.43
2018-06-02T00:24:15.490Z,801.46
2018-06-02T00:24:19.699Z,801.43
2018-06-02T00:24:24.018Z,801.43
2018-06-02T00:24:28.376Z,801.4
2018-06-02T00:24:32.715Z,801.43
2018-06-02T00:24:37.037Z,801.44
2018-06-02T00:24:41.364Z,801.43
2018-06-02T00:24:45.356Z,801.41
2018-06-02T00:24:49.569Z,801.42
2018-06-02T00:24:53.784Z,801.45
2018-06-02T00:24:57.990Z,801.43
2018-06-02T00:25:02.310Z,801.43
2018-06-02T00:25:06.414Z,801.4
2018-06-02T00:25:10.516Z,801.44
2018-06-02T00:25:14.845Z,801.41
2018-06-02T00:25:19.054Z,801.41
2018-06-02T00:25:23.177Z,801.43
2018-06-02T00:25:27.391Z,801.4
2018-06-02T00:25:31.716Z,801.43
2018-06-02T00:25:35.931Z,801.41
2018-06-02T00:25:40.033Z,801.43
2018-06-02T00:25:44.141Z,801.41
2018-06-02T00:25:48.464Z,801.41
2018-06-02T00:25:52.674Z,801.41
2018-06-02T00:25:56.672Z,801.38
2018-06-02T00:26:00.774Z,801.41
2018-06-02T00:26:04.932Z,801.38
2018-06-02T00:26:09.147Z,801.39
2018-06-02T00:26:13.252Z,801.38
2018-06-02T00:26:17.352Z,801.37
2018-06-02T00:26:21.682Z,801.41
2018-06-02T00:26:25.910Z,801.39
2018-06-02T00:26:30.015Z,801.36
2018-06-02T00:26:34.223Z,801.39
2018-06-02T00:26:38.549Z,801.4
2018-06-02T00:26:42.554Z,801.33
2018-06-02T00:26:46.876Z,801.32
2018-06-02T00:26:51.195Z,801.36
2018-06-02T00:26:55.518Z,801.37
2018-06-02T00:26:59.733Z,801.35
2018-06-02T00:27:03.960Z,801.34
2018-06-02T00:27:08.059Z,801.35
2018-06-02T00:27:12.379Z,801.37
2018-06-02T00:27:16.716Z,801.35
2018-06-02T00:27:21.041Z,801.36
2018-06-02T00:27:25.368Z,801.31
2018-06-02T00:27:29.467Z,801.36
2018-06-02T00:27:33.678Z,801.33
2018-06-02T00:27:37.785Z,801.36
2018-06-02T00:27:42.001Z,801.36
2018-06-02T00:27:46.101Z,801.34
2018-06-02T00:27:50.204Z,801.33
2018-06-02T00:27:54.524Z,801.35
2018-06-02T00:27:58.729Z,801.33
2018-06-02T00:28:02.841Z,801.32
2018-06-02T00:28:07.057Z,801.33
2018-06-02T00:28:11.280Z,801.31
2018-06-02T00:28:15.490Z,801.34
2018-06-02T00:28:19.484Z,801.32
2018-06-02T00:28:23.690Z,801.31
2018-06-02T00:28:27.901Z,801.25
2018-06-02T00:28:31.895Z,801.32
2018-06-02T00:28:36.108Z,801.32
2018-06-02T00:28:40.213Z,801.31
2018-06-02T00:28:44.314Z,801.31
2018-06-02T00:28:48.645Z,801.3
2018-06-02T00:28:52.959Z,801.3
2018-06-02T00:28:57.278Z,801.29
2018-06-02T00:29:01.486Z,801.32
2018-06-02T00:29:05.752Z,801.3
2018-06-02T00:29:10.067Z,801.3
2018-06-02T00:29:14.280Z,801.29
2018-06-02T00:29:18.497Z,801.29
2018-06-02T00:29:22.862Z,801.31
2018-06-02T00:29:27.159Z,801.29
2018-06-02T00:29:31.480Z,801.28
2018-06-02T00:29:35.690Z,801.32
2018-06-02T00:29:39.903Z,801.31
2018-06-02T00:29:44.117Z,801.3
2018-06-02T00:29:48.460Z,801.3
2018-06-02T00:29:52.556Z,801.24
2018-06-02T00:29:56.879Z,801.25
2018-06-02T00:30:01.091Z,801.29
2018-06-02T00:30:04.979Z,801.28
2018-06-02T00:30:09.087Z,801.27
2018-06-02T00:30:13.314Z,801.28
2018-06-02T00:30:17.309Z,801.3
2018-06-02T00:30:21.413Z,801.27
2018-06-02T00:30:25.627Z,801.24
2018-06-02T00:30:29.845Z,801.24
2018-06-02T00:30:34.169Z,801.28
2018-06-02T00:30:38.391Z,801.29
2018-06-02T00:30:42.606Z,801.25
2018-06-02T00:30:46.821Z,801.3
2018-06-02T00:30:51.028Z,801.27
2018-06-02T00:30:55.245Z,801.22
2018-06-02T00:30:59.454Z,801.3
2018-06-02T00:31:03.342Z,801.26
2018-06-02T00:31:07.443Z,801.27
2018-06-02T00:31:11.553Z,801.27
2018-06-02T00:31:15.769Z,801.28
2018-06-02T00:31:19.765Z,801.29
2018-06-02T00:31:24.078Z,801.28
2018-06-02T00:31:28.092Z,801.28
2018-06-02T00:31:32.452Z,801.26
2018-06-02T00:31:36.548Z,801.27
2018-06-02T00:31:40.539Z,801.25
2018-06-02T00:31:44.745Z,801.24
2018-06-02T00:31:48.955Z,801.22
2018-06-02T00:31:53.267Z,801.24
2018-06-02T00:31:57.476Z,801.25
2018-06-02T00:32:01.614Z,801.22
2018-06-02T00:32:05.846Z,801.24
2018-06-02T00:32:10.054Z,801.22
2018-06-02T00:32:14.387Z,801.24
2018-06-02T00:32:18.704Z,801.27
2018-06-02T00:32:23.027Z,801.19
2018-06-02T00:32:27.243Z,801.18
2018-06-02T00:32:31.457Z,801.19
2018-06-02T00:32:35.677Z,801.22
2018-06-02T00:32:39.780Z,801.22
2018-06-02T00:32:43.773Z,801.21
2018-06-02T00:32:47.878Z,801.15
2018-06-02T00:32:52.094Z,801.19
2018-06-02T00:32:56.091Z,801.19
2018-06-02T00:33:00.425Z,801.17
2018-06-02T00:33:04.636Z,801.18
2018-06-02T00:33:08.741Z,801.19
2018-06-02T00:33:13.059Z,801.17
2018-06-02T00:33:17.384Z,801.17
2018-06-02T00:33:21.488Z,801.16
2018-06-02T00:33:25.699Z,801.16
2018-06-02T00:33:29.910Z,801.19
2018-06-02T00:33:34.127Z,801.13
2018-06-02T00:33:38.449Z,801.16
2018-06-02T00:33:42.661Z,801.13
2018-06-02T00:33:46.982Z,801.16
2018-06-02T00:33:51.318Z,801.1
2018-06-02T00:33:55.644Z,801.16
2018-06-02T00:33:59.973Z,801.13
2018-06-02T00:34:04.119Z,801.15
2018-06-02T00:34:08.228Z,801.12
2018-06-02T00:34:12.558Z,801.11
2018-06-02T00:34:16.809Z,801.14
2018-06-02T00:34:21.127Z,801.11
2018-06-02T00:34:25.455Z,801.12
2018-06-02T00:34:29.671Z,801.1
2018-06-02T00:34:33.669Z,801.09
2018-06-02T00:34:37.989Z,801.07
2018-06-02T00:34:42.245Z,801.1
2018-06-02T00:34:46.567Z,801.08
2018-06-02T00:34:50.886Z,801.05
2018-06-02T00:34:55.099Z,801.09
2018-06-02T00:34:59.417Z,801.07
2018-06-02T00:35:03.590Z,801.06
2018-06-02T00:35:07.694Z,801.04
2018-06-02T00:35:11.904Z,801.05
2018-06-02T00:35:16.119Z,801.09
2018-06-02T00:35:20.441Z,801.05
2018-06-02T00:35:24.654Z,801.07
2018-06-02T00:35:28.765Z,801.04
2018-06-02T00:35:32.981Z,801.05
2018-06-02T00:35:37.341Z,801.06
2018-06-02T00:35:41.555Z,801.03
2018-06-02T00:35:45.772Z,801.04
2018-06-02T00:35:50.090Z,801.01
2018-06-02T00:35:54.301Z,800.99
2018-06-02T00:35:58.404Z,800.99
2018-06-02T00:36:02.611Z,801.01
2018-06-02T00:36:06.500Z,800.97
2018-06-02T00:36:10.601Z,801.01
2018-06-02T00:36:14.936Z,801
2018-06-02T00:36:19.142Z,800.97
2018-06-02T00:36:23.354Z,800.98
2018-06-02T00:36:27.564Z,800.96
2018-06-02T00:36:31.774Z,800.98
2018-06-02T00:36:35.992Z,800.91
2018-06-02T00:36:40.206Z,800.95
2018-06-02T00:36:44.425Z,800.96
2018-06-02T00:36:48.751Z,800.91
2018-06-02T00:36:52.975Z,800.91
2018-06-02T00:36:57.091Z,800.92
2018-06-02T00:37:01.088Z,800.92
2018-06-02T00:37:05.241Z,800.89
2018-06-02T00:37:09.236Z,800.93
2018-06-02T00:37:13.443Z,800.91
2018-06-02T00:37:17.656Z,800.91
2018-06-02T00:37:21.870Z,800.9
2018-06-02T00:37:26.089Z,800.84
2018-06-02T00:37:30.299Z,800.88
2018-06-02T00:37:34.412Z,800.86
2018-06-02T00:37:38.728Z,800.84
2018-06-02T00:37:43.045Z,800.88
2018-06-02T00:37:47.145Z,800.9
2018-06-02T00:37:51.366Z,800.87
2018-06-02T00:37:55.584Z,800.83
2018-06-02T00:37:59.919Z,800.86
2018-06-02T00:38:04.186Z,800.83
2018-06-02T00:38:08.402Z,800.87
2018-06-02T00:38:12.721Z,800.84
2018-06-02T00:38:16.819Z,800.84
2018-06-02T00:38:20.924Z,800.84
2018-06-02T00:38:25.248Z,800.86
2018-06-02T00:38:29.455Z,800.83
2018-06-02T00:38:33.449Z,800.83
2018-06-02T00:38:37.776Z,800.79
2018-06-02T00:38:41.881Z,800.8
2018-06-02T00:38:46.210Z,800.82
2018-06-02T00:38:50.321Z,800.83
2018-06-02T00:38:54.311Z,800.8
2018-06-02T00:38:58.552Z,800.82
2018-06-02T00:39:02.883Z,800.81
2018-06-02T00:39:07.107Z,800.76
2018-06-02T00:39:11.332Z,800.75
2018-06-02T00:39:15.648Z,800.73
2018-06-02T00:39:19.863Z,800.73
2018-06-02T00:39:24.179Z,800.75
2018-06-02T00:39:28.395Z,800.77
2018-06-02T00:39:32.604Z,800.76
2018-06-02T00:39:36.820Z,800.72
2018-06-02T00:39:41.141Z,800.76
2018-06-02T00:39:45.249Z,800.76
2018-06-02T00:39:49.582Z,800.75
2018-06-02T00:39:53.915Z,800.73
2018-06-02T00:39:58.132Z,800.71
2018-06-02T00:40:02.498Z,800.71
2018-06-02T00:40:06.278Z,800.69
2018-06-02T00:40:10.277Z,800.72
2018-06-02T00:40:14.597Z,800.73
2018-06-02T00:40:18.702Z,800.71
2018-06-02T00:40:22.807Z,800.7
2018-06-02T00:40:27.013Z,800.74
2018-06-02T00:40:31.223Z,800.7
2018-06-02T00:40:35.434Z,800.71
2018-06-02T00:40:39.648Z,800.71
2018-06-02T00:40:43.758Z,800.74
2018-06-02T00:40:47.860Z,800.74
2018-06-02T00:40:52.190Z,800.73
2018-06-02T00:40:56.292Z,800.7
2018-06-02T00:41:00.507Z,800.67
2018-06-02T00:41:04.395Z,800.67
2018-06-02T00:41:08.621Z,800.68
2018-06-02T00:41:12.729Z,800.67
2018-06-02T00:41:16.941Z,800.72
2018-06-02T00:41:21.259Z,800.69
2018-06-02T00:41:25.574Z,800.72
2018-06-02T00:41:29.902Z,800.7
2018-06-02T00:41:34.004Z,800.69
2018-06-02T00:41:38.006Z,800.68
2018-06-02T00:41:42.333Z,800.68
2018-06-02T00:41:46.442Z,800.69
2018-06-02T00:41:50.682Z,800.65
2018-06-02T00:41:54.892Z,800.65
2018-06-02T00:41:59.218Z,800.68
2018-06-02T00:42:03.212Z,800.65
2018-06-02T00:42:07.476Z,800.65
2018-06-02T00:42:11.792Z,800.67
2018-06-02T00:42:16.004Z,800.63
2018-06-02T00:42:20.105Z,800.63
2018-06-02T00:42:24.321Z,800.65
2018-06-02T00:42:28.639Z,800.63
2018-06-02T00:42:32.743Z,800.61
2018-06-02T00:42:36.856Z,800.66
2018-06-02T00:42:41.069Z,800.63
2018-06-02T00:42:45.387Z,800.61
2018-06-02T00:42:49.707Z,800.58
2018-06-02T00:42:53.924Z,800.58
2018-06-02T00:42:58.136Z,800.64
2018-06-02T00:43:02.240Z,800.64
2018-06-02T00:43:06.349Z,800.63
2018-06-02T00:43:10.461Z,800.62
2018-06-02T00:43:14.787Z,800.64
2018-06-02T00:43:18.997Z,800.62
2018-06-02T00:43:23.336Z,800.62
2018-06-02T00:43:27.557Z,800.63
2018-06-02T00:43:31.888Z,800.62
2018-06-02T00:43:36.094Z,800.65
2018-06-02T00:43:40.305Z,800.64
2018-06-02T00:43:44.406Z,800.61
2018-06-02T00:43:48.405Z,800.63
2018-06-02T00:43:52.611Z,800.63
2018-06-02T00:43:56.833Z,800.61
2018-06-02T00:44:01.039Z,800.62
2018-06-02T00:44:05.263Z,800.59
2018-06-02T00:44:09.370Z,800.62
2018-06-02T00:44:13.693Z,800.61
2018-06-02T00:44:17.901Z,800.59
2018-06-02T00:44:22.115Z,800.54
2018-06-02T00:44:26.243Z,800.6
2018-06-02T00:44:30.346Z,800.65
2018-06-02T00:44:34.453Z,800.58
2018-06-02T00:44:38.667Z,800.66
2018-06-02T00:44:42.881Z,800.6
2018-06-02T00:44:47.202Z,800.62
2018-06-02T00:44:51.419Z,800.6
2018-06-02T00:44:55.633Z,800.62
2018-06-02T00:44:59.848Z,800.58
2018-06-02T00:45:03.628Z,800.6
2018-06-02T00:45:07.732Z,800.61
2018-06-02T00:45:12.056Z,800.6
2018-06-02T00:45:16.269Z,800.56
2018-06-02T00:45:20.478Z,800.59
2018-06-02T00:45:24.799Z,800.53
2018-06-02T00:45:29.127Z,800.57
2018-06-02T00:45:33.452Z,800.56
2018-06-02T00:45:37.671Z,800.56
2018-06-02T00:45:41.880Z,800.58
2018-06-02T00:45:46.198Z,800.59
2018-06-02T00:45:50.519Z,800.58
2018-06-02T00:45:54.752Z,800.58
2018-06-02T00:45:59.078Z,800.53
2018-06-02T00:46:03.305Z,800.55
2018-06-02T00:46:07.630Z,800.56
2018-06-02T00:46:11.952Z,800.5
2018-06-02T00:46:16.054Z,800.53
2018-06-02T00:46:20.268Z,800.5
2018-06-02T00:46:24.588Z,800.53
2018-06-02T00:46:28.796Z,800.53
2018-06-02T00:46:33.026Z,800.53
2018-06-02T00:46:37.130Z,800.52
2018-06-02T00:46:41.448Z,800.5
2018-06-02T00:46:45.557Z,800.52
2018-06-02T00:46:49.874Z,800.52
2018-06-02T00:46:54.097Z,800.52
2018-06-02T00:46:58.311Z,800.5
2018-06-02T00:47:02.309Z,800.45
2018-06-02T00:47:06.518Z,800.46
2018-06-02T00:47:10.618Z,800.48
2018-06-02T00:47:14.831Z,800.46
2018-06-02T00:47:19.157Z,800.48
2018-06-02T00:47:23.257Z,800.52
2018-06-02T00:47:27.406Z,800.46
2018-06-02T00:47:31.619Z,800.48
2018-06-02T00:47:35.938Z,800.47
2018-06-02T00:47:40.268Z,800.5
2018-06-02T00:47:44.477Z,800.45
2018-06-02T00:47:48.694Z,800.43
2018-06-02T00:47:53.011Z,800.46
2018-06-02T00:47:57.225Z,800.48
2018-06-02T00:48:01.324Z,800.39
2018-06-02T00:48:05.547Z,800.45
2018-06-02T00:48:09.799Z,800.46
2018-06-02T00:48:13.902Z,800.49
2018-06-02T00:48:18.217Z,800.46
2018-06-02T00:48:22.320Z,800.45
2018-06-02T00:48:26.640Z,800.44
2018-06-02T00:48:30.961Z,800.45
2018-06-02T00:48:35.068Z,800.44
2018-06-02T00:48:39.067Z,800.43
2018-06-02T00:48:43.273Z,800.39
2018-06-02T00:48:47.376Z,800.4
2018-06-02T00:48:51.692Z,800.41
2018-06-02T00:48:55.906Z,800.39
2018-06-02T00:49:00.229Z,800.43
2018-06-02T00:49:04.234Z,800.44
2018-06-02T00:49:08.449Z,800.44
2018-06-02T00:49:12.764Z,800.43
2018-06-02T00:49:16.976Z,800.4
2018-06-02T00:49:21.185Z,800.4
2018-06-02T00:49:25.186Z,800.41
2018-06-02T00:49:29.300Z,800.4
2018-06-02T00:49:33.617Z,800.42
2018-06-02T00:49:37.953Z,800.4
2018-06-02T00:49:42.404Z,800.41
2018-06-02T00:49:46.722Z,800.4
2018-06-02T00:49:50.950Z,800.38
2018-06-02T00:49:55.178Z,800.4
2018-06-02T00:49:59.490Z,800.4
2018-06-02T00:50:03.711Z,800.38
2018-06-02T00:50:08.026Z,800.38
2018-06-02T00:50:12.024Z,800.35
2018-06-02T00:50:16.238Z,800.38
2018-06-02T00:50:20.557Z,800.39
2018-06-02T00:50:24.766Z,800.34
2018-06-02T00:50:29.080Z,800.34
2018-06-02T00:50:33.306Z,800.3
2018-06-02T00:50:37.409Z,800.35
2018-06-02T00:50:41.615Z,800.34
2018-06-02T00:50:45.842Z,800.35
2018-06-02T00:50:49.942Z,800.33
2018-06-02T00:50:54.158Z,800.32
2018-06-02T00:50:58.367Z,800.32
2018-06-02T00:51:02.671Z,800.32
2018-06-02T00:51:06.894Z,800.31
2018-06-02T00:51:11.002Z,800.32
2018-06-02T00:51:15.327Z,800.31
2018-06-02T00:51:19.538Z,800.3
2018-06-02T00:51:23.744Z,800.32
2018-06-02T00:51:27.849Z,800.23
2018-06-02T00:51:32.058Z,800.32
2018-06-02T00:51:36.262Z,800.3
2018-06-02T00:51:40.579Z,800.29
2018-06-02T00:51:44.679Z,800.29
2018-06-02T00:51:48.798Z,800.29
2018-06-02T00:51:53.113Z,800.29
2018-06-02T00:51:57.336Z,800.28
2018-06-02T00:52:01.555Z,800.29
2018-06-02T00:52:05.665Z,800.26
2018-06-02T00:52:09.767Z,800.27
2018-06-02T00:52:13.869Z,800.27
2018-06-02T00:52:18.075Z,800.26
2018-06-02T00:52:22.176Z,800.24
2018-06-02T00:52:26.390Z,800.28
2018-06-02T00:52:30.490Z,800.29
2018-06-02T00:52:34.705Z,800.25
2018-06-02T00:52:38.920Z,800.28
2018-06-02T00:52:43.024Z,800.25